sensor_id;sensor_type;location;lat;lon;timestamp;P1;durP1;ratioP1;P2;durP2;ratioP2
73104;SDS011;61296;50.526;30.792;2022-07-05T00:06:21;5.05;;;4.25;;
73104;SDS011;61296;50.526;30.792;2022-07-05T00:21:40;5.70;;;4.18;;
73104;SDS011;61296;50.526;30.792;2022-07-05T00:36:59;6.55;;;4.53;;
73104;SDS011;61296;50.526;30.792;2022-07-05T00:52:18;5.93;;;4.20;;
73104;SDS011;61296;50.526;30.792;2022-07-05T01:07:38;5.07;;;4.53;;
73104;SDS011;61296;50.526;30.792;2022-07-05T01:22:57;7.07;;;5.05;;
73104;SDS011;61296;50.526;30.792;2022-07-05T01:38:24;6.88;;;4.80;;
73104;SDS011;61296;50.526;30.792;2022-07-05T01:53:44;5.82;;;5.22;;
73104;SDS011;61296;50.526;30.792;2022-07-05T02:09:04;6.10;;;4.68;;
73104;SDS011;61296;50.526;30.792;2022-07-05T02:24:25;7.75;;;5.07;;
73104;SDS011;61296;50.526;30.792;2022-07-05T02:39:54;8.52;;;5.28;;
73104;SDS011;61296;50.526;30.792;2022-07-05T02:55:14;10.75;;;5.82;;
73104;SDS011;61296;50.526;30.792;2022-07-05T03:10:33;11.85;;;6.90;;
73104;SDS011;61296;50.526;30.792;2022-07-05T03:25:56;8.20;;;6.07;;
73104;SDS011;61296;50.526;30.792;2022-07-05T03:41:16;11.27;;;7.93;;
73104;SDS011;61296;50.526;30.792;2022-07-05T03:56:35;21.13;;;7.38;;
73104;SDS011;61296;50.526;30.792;2022-07-05T04:11:59;14.77;;;8.00;;
73104;SDS011;61296;50.526;30.792;2022-07-05T04:27:19;10.13;;;7.10;;
73104;SDS011;61296;50.526;30.792;2022-07-05T04:42:39;13.32;;;7.85;;
73104;SDS011;61296;50.526;30.792;2022-07-05T04:58:00;8.70;;;6.25;;
73104;SDS011;61296;50.526;30.792;2022-07-05T05:13:20;8.60;;;7.03;;
73104;SDS011;61296;50.526;30.792;2022-07-05T05:28:39;10.48;;;7.07;;
73104;SDS011;61296;50.526;30.792;2022-07-05T05:43:58;19.52;;;8.15;;
73104;SDS011;61296;50.526;30.792;2022-07-05T05:59:17;54.17;;;21.25;;
73104;SDS011;61296;50.526;30.792;2022-07-05T06:14:37;45.60;;;17.23;;
73104;SDS011;61296;50.526;30.792;2022-07-05T06:29:56;15.55;;;8.05;;
73104;SDS011;61296;50.526;30.792;2022-07-05T06:45:17;14.77;;;7.35;;
73104;SDS011;61296;50.526;30.792;2022-07-05T07:00:36;8.18;;;5.85;;
73104;SDS011;61296;50.526;30.792;2022-07-05T07:15:55;5.32;;;4.47;;
73104;SDS011;61296;50.526;30.792;2022-07-05T07:31:15;7.22;;;4.95;;
73104;SDS011;61296;50.526;30.792;2022-07-05T07:46:35;7.85;;;3.97;;
73104;SDS011;61296;50.526;30.792;2022-07-05T08:01:55;8.75;;;4.63;;
73104;SDS011;61296;50.526;30.792;2022-07-05T08:17:15;5.40;;;3.90;;
73104;SDS011;61296;50.526;30.792;2022-07-05T08:32:34;5.93;;;4.18;;
73104;SDS011;61296;50.526;30.792;2022-07-05T08:47:53;5.25;;;4.75;;
73104;SDS011;61296;50.526;30.792;2022-07-05T09:03:16;4.80;;;4.22;;
73104;SDS011;61296;50.526;30.792;2022-07-05T09:18:43;5.00;;;3.80;;
73104;SDS011;61296;50.526;30.792;2022-07-05T09:34:13;7.20;;;4.40;;
73104;SDS011;61296;50.526;30.792;2022-07-05T09:49:34;4.45;;;3.80;;
73104;SDS011;61296;50.526;30.792;2022-07-05T10:05:08;4.75;;;3.78;;
73104;SDS011;61296;50.526;30.792;2022-07-05T10:20:37;4.50;;;4.10;;
73104;SDS011;61296;50.526;30.792;2022-07-05T10:36:04;4.65;;;4.18;;
73104;SDS011;61296;50.526;30.792;2022-07-05T10:51:24;6.90;;;4.57;;
73104;SDS011;61296;50.526;30.792;2022-07-05T11:06:44;5.70;;;3.60;;
73104;SDS011;61296;50.526;30.792;2022-07-05T11:22:08;6.78;;;3.75;;
73104;SDS011;61296;50.526;30.792;2022-07-05T11:37:28;5.70;;;4.32;;
73104;SDS011;61296;50.526;30.792;2022-07-05T11:52:51;10.48;;;7.50;;
73104;SDS011;61296;50.526;30.792;2022-07-05T12:08:10;8.90;;;4.30;;
73104;SDS011;61296;50.526;30.792;2022-07-05T12:23:29;4.80;;;4.20;;
73104;SDS011;61296;50.526;30.792;2022-07-05T12:38:48;4.68;;;4.13;;
73104;SDS011;61296;50.526;30.792;2022-07-05T12:54:19;5.47;;;4.15;;
73104;SDS011;61296;50.526;30.792;2022-07-05T13:25:35;5.13;;;4.28;;
73104;SDS011;61296;50.526;30.792;2022-07-05T13:40:55;4.55;;;4.00;;
73104;SDS011;61296;50.526;30.792;2022-07-05T13:56:14;7.22;;;4.63;;
73104;SDS011;61296;50.526;30.792;2022-07-05T14:11:33;5.10;;;4.50;;
73104;SDS011;61296;50.526;30.792;2022-07-05T14:26:52;5.43;;;4.20;;
73104;SDS011;61296;50.526;30.792;2022-07-05T14:42:11;4.82;;;4.20;;
73104;SDS011;61296;50.526;30.792;2022-07-05T14:57:31;6.20;;;4.47;;
73104;SDS011;61296;50.526;30.792;2022-07-05T15:12:50;6.25;;;4.45;;
73104;SDS011;61296;50.526;30.792;2022-07-05T15:28:09;7.80;;;4.47;;
73104;SDS011;61296;50.526;30.792;2022-07-05T15:43:29;6.38;;;4.40;;
73104;SDS011;61296;50.526;30.792;2022-07-05T15:58:49;7.13;;;4.43;;
73104;SDS011;61296;50.526;30.792;2022-07-05T16:14:08;9.60;;;5.13;;
73104;SDS011;61296;50.526;30.792;2022-07-05T16:29:28;5.47;;;4.80;;
73104;SDS011;61296;50.526;30.792;2022-07-05T16:44:47;5.22;;;4.13;;
73104;SDS011;61296;50.526;30.792;2022-07-05T17:00:07;6.20;;;4.80;;
73104;SDS011;61296;50.526;30.792;2022-07-05T17:15:27;8.07;;;4.72;;
73104;SDS011;61296;50.526;30.792;2022-07-05T17:30:47;5.20;;;4.40;;
73104;SDS011;61296;50.526;30.792;2022-07-05T17:46:06;11.52;;;5.93;;
73104;SDS011;61296;50.526;30.792;2022-07-05T18:01:25;8.13;;;5.10;;
73104;SDS011;61296;50.526;30.792;2022-07-05T18:16:44;10.90;;;5.22;;
73104;SDS011;61296;50.526;30.792;2022-07-05T18:32:06;9.88;;;5.60;;
73104;SDS011;61296;50.526;30.792;2022-07-05T18:47:25;9.85;;;5.50;;
73104;SDS011;61296;50.526;30.792;2022-07-05T19:02:45;8.25;;;5.30;;
73104;SDS011;61296;50.526;30.792;2022-07-05T19:18:04;9.18;;;4.85;;
73104;SDS011;61296;50.526;30.792;2022-07-05T19:33:23;8.98;;;5.43;;
73104;SDS011;61296;50.526;30.792;2022-07-05T19:48:43;12.32;;;8.07;;
73104;SDS011;61296;50.526;30.792;2022-07-05T20:04:03;10.18;;;6.20;;
73104;SDS011;61296;50.526;30.792;2022-07-05T20:19:29;7.20;;;6.15;;
73104;SDS011;61296;50.526;30.792;2022-07-05T20:34:49;7.50;;;5.65;;
73104;SDS011;61296;50.526;30.792;2022-07-05T20:50:08;7.38;;;5.78;;
73104;SDS011;61296;50.526;30.792;2022-07-05T21:05:27;7.07;;;5.00;;
73104;SDS011;61296;50.526;30.792;2022-07-05T21:20:46;6.97;;;5.25;;
73104;SDS011;61296;50.526;30.792;2022-07-05T21:36:05;7.88;;;5.15;;
73104;SDS011;61296;50.526;30.792;2022-07-05T21:51:25;10.25;;;5.88;;
73104;SDS011;61296;50.526;30.792;2022-07-05T22:06:44;8.25;;;6.05;;
73104;SDS011;61296;50.526;30.792;2022-07-05T22:22:03;7.05;;;5.88;;
73104;SDS011;61296;50.526;30.792;2022-07-05T22:37:23;7.13;;;5.22;;
73104;SDS011;61296;50.526;30.792;2022-07-05T22:52:42;7.13;;;5.28;;
73104;SDS011;61296;50.526;30.792;2022-07-05T23:08:01;7.00;;;5.07;;
73104;SDS011;61296;50.526;30.792;2022-07-05T23:23:21;9.25;;;5.70;;
73104;SDS011;61296;50.526;30.792;2022-07-05T23:38:40;7.60;;;5.70;;
73104;SDS011;61296;50.526;30.792;2022-07-05T23:53:59;10.68;;;6.43;;
